Time,TemperatureF,DewpointF,PressureIn,WindDirection,WindDirectionDegrees,WindSpeedMPH,WindSpeedGustMPH,Humidity,HourlyPrecipIn,Conditions,Clouds,dailyrainin,SolarRadiationWatts/m^2,SoftwareType,DateUTC
2013-09-24 00:23:00,59.0,57.0,-100.00,WNW,296,1.0,3.0,92,0.00,,,0.00,1.000000,,2013-09-24 05:23:00,
2013-09-24 00:34:00,59.0,57.0,-100.00,WNW,296,1.0,3.0,92,0.00,,,0.00,1.000000,,2013-09-24 05:34:00,
2013-09-24 00:43:00,59.0,57.0,-100.00,WNW,296,1.0,3.0,92,0.00,,,0.00,1.000000,,2013-09-24 05:43:00,
2013-09-24 01:22:00,59.0,57.0,-100.00,SW,232,0.0,2.0,92,0.00,,,0.00,1.000000,,2013-09-24 06:22:00,
2013-09-24 01:32:00,59.0,57.0,-100.00,SW,232,0.0,2.0,92,0.00,,,0.00,1.000000,,2013-09-24 06:32:00,
2013-09-24 01:42:00,59.0,57.0,-100.00,SW,232,0.0,2.0,92,0.00,,,0.00,1.000000,,2013-09-24 06:42:00,
2013-09-24 01:52:00,59.0,57.0,-100.00,SW,232,0.0,2.0,92,0.00,,,0.00,1.000000,,2013-09-24 06:52:00,
2013-09-24 02:22:00,58.0,56.0,-100.00,WSW,245,0.0,3.0,94,0.00,,,0.00,1.000000,,2013-09-24 07:22:00,
2013-09-24 02:32:00,58.0,56.0,-100.00,WSW,245,0.0,3.0,94,0.00,,,0.00,1.000000,,2013-09-24 07:32:00,
2013-09-24 02:43:00,58.0,56.0,-100.00,WSW,245,0.0,3.0,94,0.00,,,0.00,1.000000,,2013-09-24 07:43:00,
2013-09-24 02:52:00,58.0,56.0,-100.00,WSW,245,0.0,3.0,94,0.00,,,0.00,1.000000,,2013-09-24 07:52:00,
2013-09-24 03:22:00,57.0,56.0,-100.00,SW,214,0.0,0.0,96,0.00,,,0.00,1.000000,,2013-09-24 08:22:00,
2013-09-24 03:32:00,57.0,56.0,-100.00,SW,214,0.0,0.0,96,0.00,,,0.00,1.000000,,2013-09-24 08:32:00,
2013-09-24 03:42:00,57.0,56.0,-100.00,SW,214,0.0,0.0,96,0.00,,,0.00,1.000000,,2013-09-24 08:42:00,
2013-09-24 03:52:00,57.0,56.0,-100.00,SW,214,0.0,0.0,96,0.00,,,0.00,1.000000,,2013-09-24 08:52:00,
2013-09-24 03:53:00,57.0,56.0,-100.00,NW,321,0.0,0.0,95,0.00,,,0.00,1.000000,,2013-09-24 08:53:00,
2013-09-24 04:21:00,57.0,56.0,-100.00,NW,321,0.0,0.0,95,0.00,,,0.00,1.000000,,2013-09-24 09:21:00,
2013-09-24 04:33:00,57.0,56.0,-100.00,NW,321,0.0,0.0,95,0.00,,,0.00,1.000000,,2013-09-24 09:33:00,
2013-09-24 04:43:00,57.0,56.0,-100.00,NW,321,0.0,0.0,95,0.00,,,0.00,1.000000,,2013-09-24 09:43:00,
2013-09-24 04:53:00,58.0,57.0,-100.00,WNW,301,0.0,0.0,95,0.00,,,0.00,1.000000,,2013-09-24 09:53:00,
2013-09-24 05:23:00,58.0,57.0,-100.00,WNW,301,0.0,0.0,95,0.00,,,0.00,1.000000,,2013-09-24 10:23:00,
2013-09-24 05:33:00,58.0,57.0,-100.00,WNW,301,0.0,0.0,95,0.00,,,0.00,1.000000,,2013-09-24 10:33:00,
2013-09-24 05:42:00,58.0,57.0,-100.00,WNW,301,0.0,0.0,95,0.00,,,0.00,1.000000,,2013-09-24 10:42:00,
2013-09-24 06:22:00,57.0,56.0,-100.00,SW,227,0.0,2.0,96,0.00,,,0.00,1.000000,,2013-09-24 11:22:00,
2013-09-24 06:33:00,57.0,56.0,-100.00,SW,227,0.0,2.0,96,0.00,,,0.00,1.000000,,2013-09-24 11:33:00,
2013-09-24 06:42:00,57.0,56.0,-100.00,SW,227,0.0,2.0,96,0.00,,,0.00,1.000000,,2013-09-24 11:42:00,
2013-09-24 06:52:00,57.0,56.0,-100.00,SW,227,0.0,2.0,96,0.00,,,0.00,1.000000,,2013-09-24 11:52:00,
2013-09-24 07:22:00,58.0,57.0,-100.00,West,266,0.0,2.0,95,0.00,,,0.00,1.000000,,2013-09-24 12:22:00,
2013-09-24 07:32:00,58.0,57.0,-100.00,West,266,0.0,2.0,95,0.00,,,0.00,1.000000,,2013-09-24 12:32:00,
2013-09-24 07:42:00,58.0,57.0,-100.00,West,266,0.0,2.0,95,0.00,,,0.00,1.000000,,2013-09-24 12:42:00,
2013-09-24 07:52:00,58.0,57.0,-100.00,West,266,0.0,2.0,95,0.00,,,0.00,1.000000,,2013-09-24 12:52:00,
2013-09-24 08:22:00,60.0,58.0,-100.00,West,278,2.0,3.0,92,0.00,,,0.00,26.000000,,2013-09-24 13:22:00,
2013-09-24 08:32:00,60.0,58.0,-100.00,West,278,2.0,3.0,92,0.00,,,0.00,26.000000,,2013-09-24 13:32:00,
2013-09-24 08:42:00,60.0,58.0,-100.00,West,278,2.0,3.0,92,0.00,,,0.00,26.000000,,2013-09-24 13:42:00,
2013-09-24 08:52:00,60.0,58.0,-100.00,West,278,2.0,3.0,92,0.00,,,0.00,26.000000,,2013-09-24 13:52:00,
2013-09-24 09:21:00,65.0,60.0,-100.00,NW,324,4.0,6.0,84,0.00,,,0.00,208.000000,,2013-09-24 14:21:00,
2013-09-24 09:32:00,65.0,60.0,-100.00,NW,324,4.0,6.0,84,0.00,,,0.00,208.000000,,2013-09-24 14:32:00,
2013-09-24 09:42:00,65.0,60.0,-100.00,NW,324,4.0,6.0,84,0.00,,,0.00,208.000000,,2013-09-24 14:42:00,
2013-09-24 09:52:00,65.0,60.0,-100.00,NW,324,4.0,6.0,84,0.00,,,0.00,208.000000,,2013-09-24 14:52:00,
2013-09-24 09:53:00,67.0,62.0,-100.00,NNW,340,4.0,6.0,84,0.00,,,0.00,190.000000,,2013-09-24 14:53:00,
2013-09-24 10:22:00,67.0,62.0,-100.00,NNW,340,4.0,6.0,84,0.00,,,0.00,190.000000,,2013-09-24 15:22:00,
2013-09-24 10:33:00,67.0,62.0,-100.00,NNW,340,4.0,6.0,84,0.00,,,0.00,190.000000,,2013-09-24 15:33:00,
2013-09-24 10:43:00,67.0,62.0,-100.00,NNW,340,4.0,6.0,84,0.00,,,0.00,190.000000,,2013-09-24 15:43:00,
2013-09-24 10:53:00,74.0,64.0,-100.00,North,353,3.0,7.0,70,0.00,,,0.00,545.000000,,2013-09-24 15:53:00,
2013-09-24 11:23:00,74.0,64.0,-100.00,North,353,3.0,7.0,70,0.00,,,0.00,545.000000,,2013-09-24 16:23:00,
2013-09-24 11:33:00,74.0,64.0,-100.00,North,353,3.0,7.0,70,0.00,,,0.00,545.000000,,2013-09-24 16:33:00,
2013-09-24 11:43:00,74.0,64.0,-100.00,North,353,3.0,7.0,70,0.00,,,0.00,545.000000,,2013-09-24 16:43:00,
2013-09-24 11:53:00,77.0,64.0,-100.00,NNW,343,5.0,9.0,64,0.00,,,0.00,742.000000,,2013-09-24 16:53:00,
2013-09-24 12:23:00,77.0,64.0,-100.00,NNW,343,5.0,9.0,64,0.00,,,0.00,742.000000,,2013-09-24 17:23:00,
2013-09-24 12:33:00,77.0,64.0,-100.00,NNW,343,5.0,9.0,64,0.00,,,0.00,742.000000,,2013-09-24 17:33:00,
2013-09-24 12:43:00,77.0,64.0,-100.00,NNW,343,5.0,9.0,64,0.00,,,0.00,742.000000,,2013-09-24 17:43:00,
2013-09-24 13:22:00,80.0,65.0,-100.00,North,351,4.0,9.0,60,0.00,,,0.00,800.000000,,2013-09-24 18:22:00,
2013-09-24 13:32:00,80.0,65.0,-100.00,North,351,4.0,9.0,60,0.00,,,0.00,800.000000,,2013-09-24 18:32:00,
2013-09-24 13:42:00,80.0,65.0,-100.00,North,351,4.0,9.0,60,0.00,,,0.00,800.000000,,2013-09-24 18:42:00,
2013-09-24 13:52:00,80.0,65.0,-100.00,North,351,4.0,9.0,60,0.00,,,0.00,800.000000,,2013-09-24 18:52:00,
2013-09-24 14:22:00,82.0,63.0,-100.00,ENE,70,6.0,10.0,53,0.00,,,0.00,825.000000,,2013-09-24 19:22:00,
2013-09-24 14:32:00,82.0,63.0,-100.00,ENE,70,6.0,10.0,53,0.00,,,0.00,825.000000,,2013-09-24 19:32:00,
2013-09-24 14:42:00,82.0,63.0,-100.00,ENE,70,6.0,10.0,53,0.00,,,0.00,825.000000,,2013-09-24 19:42:00,
2013-09-24 14:52:00,82.0,63.0,-100.00,ENE,70,6.0,10.0,53,0.00,,,0.00,825.000000,,2013-09-24 19:52:00,
2013-09-24 15:22:00,83.0,64.0,-100.00,NNE,33,6.0,12.0,53,0.00,,,0.00,790.000000,,2013-09-24 20:22:00,
2013-09-24 15:32:00,83.0,64.0,-100.00,NNE,33,6.0,12.0,53,0.00,,,0.00,790.000000,,2013-09-24 20:32:00,
2013-09-24 15:42:00,83.0,64.0,-100.00,NNE,33,6.0,12.0,53,0.00,,,0.00,790.000000,,2013-09-24 20:42:00,
2013-09-24 15:52:00,83.0,64.0,-100.00,NNE,33,6.0,12.0,53,0.00,,,0.00,790.000000,,2013-09-24 20:52:00,
2013-09-24 15:53:00,82.0,65.0,-100.00,NE,37,5.0,11.0,56,0.00,,,0.00,462.000000,,2013-09-24 20:53:00,
2013-09-24 16:22:00,82.0,65.0,-100.00,NE,37,5.0,11.0,56,0.00,,,0.00,462.000000,,2013-09-24 21:22:00,
2013-09-24 16:33:00,82.0,65.0,-100.00,NE,37,5.0,11.0,56,0.00,,,0.00,462.000000,,2013-09-24 21:33:00,
2013-09-24 16:43:00,82.0,65.0,-100.00,NE,37,5.0,11.0,56,0.00,,,0.00,462.000000,,2013-09-24 21:43:00,
2013-09-24 16:53:00,81.0,64.0,-100.00,North,9,6.0,11.0,57,0.00,,,0.00,383.000000,,2013-09-24 21:53:00,
2013-09-24 17:23:00,81.0,64.0,-100.00,North,9,6.0,11.0,57,0.00,,,0.00,383.000000,,2013-09-24 22:23:00,
2013-09-24 17:34:00,81.0,64.0,-100.00,North,9,6.0,11.0,57,0.00,,,0.00,383.000000,,2013-09-24 22:34:00,
2013-09-24 17:43:00,81.0,64.0,-100.00,North,9,6.0,11.0,57,0.00,,,0.00,383.000000,,2013-09-24 22:43:00,
2013-09-24 17:53:00,81.0,64.0,-100.00,NNE,17,5.0,10.0,57,0.00,,,0.00,305.000000,,2013-09-24 22:53:00,
2013-09-24 18:22:00,81.0,64.0,-100.00,NNE,17,5.0,10.0,57,0.00,,,0.00,305.000000,,2013-09-24 23:22:00,
2013-09-24 18:33:00,81.0,64.0,-100.00,NNE,17,5.0,10.0,57,0.00,,,0.00,305.000000,,2013-09-24 23:33:00,
2013-09-24 18:43:00,81.0,64.0,-100.00,NNE,17,5.0,10.0,57,0.00,,,0.00,305.000000,,2013-09-24 23:43:00,
2013-09-24 19:22:00,75.0,68.0,-100.00,NW,324,4.0,9.0,80,0.00,,,0.00,87.000000,,2013-09-25 00:22:00,
2013-09-24 19:33:00,75.0,68.0,-100.00,NW,324,4.0,9.0,80,0.00,,,0.00,87.000000,,2013-09-25 00:33:00,
2013-09-24 19:42:00,75.0,68.0,-100.00,NW,324,4.0,9.0,80,0.00,,,0.00,87.000000,,2013-09-25 00:42:00,
2013-09-24 19:52:00,75.0,68.0,-100.00,NW,324,4.0,9.0,80,0.00,,,0.00,87.000000,,2013-09-25 00:52:00,
2013-09-24 20:21:00,72.0,70.0,-100.00,NW,323,5.0,9.0,92,0.00,,,0.00,2.000000,,2013-09-25 01:21:00,
2013-09-24 20:32:00,72.0,70.0,-100.00,NW,323,5.0,9.0,92,0.00,,,0.00,2.000000,,2013-09-25 01:32:00,
2013-09-24 20:42:00,72.0,70.0,-100.00,NW,323,5.0,9.0,92,0.00,,,0.00,2.000000,,2013-09-25 01:42:00,
2013-09-24 20:52:00,72.0,70.0,-100.00,NW,323,5.0,9.0,92,0.00,,,0.00,2.000000,,2013-09-25 01:52:00,
2013-09-24 21:22:00,72.0,70.0,-100.00,NNW,334,8.0,12.0,94,0.00,,,0.00,1.000000,,2013-09-25 02:22:00,
2013-09-24 21:32:00,72.0,70.0,-100.00,NNW,334,8.0,12.0,94,0.00,,,0.00,1.000000,,2013-09-25 02:32:00,
2013-09-24 21:42:00,72.0,70.0,-100.00,NNW,334,8.0,12.0,94,0.00,,,0.00,1.000000,,2013-09-25 02:42:00,
2013-09-24 21:52:00,72.0,70.0,-100.00,NNW,334,8.0,12.0,94,0.00,,,0.00,1.000000,,2013-09-25 02:52:00,
2013-09-24 21:53:00,71.0,69.0,-100.00,North,359,7.0,15.0,94,0.00,,,-99.99,1.000000,,2013-09-25 02:53:00,
2013-09-24 22:23:00,71.0,69.0,-100.00,North,359,7.0,15.0,94,0.00,,,-99.99,1.000000,,2013-09-25 03:23:00,
2013-09-24 22:34:00,71.0,69.0,-100.00,North,359,7.0,15.0,94,0.00,,,-99.99,1.000000,,2013-09-25 03:34:00,
2013-09-24 22:44:00,71.0,69.0,-100.00,North,359,7.0,15.0,94,0.00,,,-99.99,1.000000,,2013-09-25 03:44:00,
2013-09-24 22:53:00,71.0,69.0,-100.00,NNW,348,6.0,13.0,95,0.00,,,0.00,1.000000,,2013-09-25 03:53:00,
2013-09-24 23:24:00,71.0,69.0,-100.00,NNW,348,6.0,13.0,95,0.00,,,0.00,1.000000,,2013-09-25 04:24:00,
2013-09-24 23:34:00,71.0,69.0,-100.00,NNW,348,6.0,13.0,95,0.00,,,0.00,1.000000,,2013-09-25 04:34:00,
2013-09-24 23:43:00,71.0,69.0,-100.00,NNW,348,6.0,13.0,95,0.00,,,0.00,1.000000,,2013-09-25 04:43:00,
2013-09-24 23:53:00,70.0,69.0,-100.00,NW,317,3.0,9.0,97,0.00,,,0.00,1.000000,,2013-09-25 04:53:00,